createdAt,value
2018-06-03T00:05:33.320Z,16.49
2018-06-03T00:11:37.361Z,16.31
2018-06-03T00:17:41.433Z,16.21
2018-06-03T00:23:45.469Z,16.23
2018-06-03T00:29:49.894Z,16.12
2018-06-03T00:36:12.924Z,16.18
2018-06-03T00:42:17.315Z,16.10
2018-06-03T00:48:21.720Z,16.21
2018-06-03T00:54:26.907Z,15.98
2018-06-03T01:00:31.275Z,15.95
2018-06-03T01:06:35.636Z,15.95
2018-06-03T01:12:39.946Z,15.88
2018-06-03T01:18:45.138Z,15.87
2018-06-03T01:24:49.883Z,15.73
2018-06-03T01:30:54.307Z,15.71
2018-06-03T01:36:58.665Z,15.54
2018-06-03T01:43:03.019Z,15.55
2018-06-03T01:49:07.364Z,15.45
2018-06-03T01:55:12.485Z,15.27
2018-06-03T02:01:16.845Z,15.17
2018-06-03T02:07:22.257Z,15.37
2018-06-03T02:13:26.677Z,15.17
2018-06-03T02:19:31.084Z,15.11
2018-06-03T02:25:36.198Z,15.08
2018-06-03T02:31:40.562Z,14.99
2018-06-03T02:37:44.912Z,15.06
2018-06-03T02:43:50.202Z,14.91
2018-06-03T02:49:55.408Z,14.94
2018-06-03T02:56:00.555Z,14.90
2018-06-03T03:02:05.087Z,14.98
2018-06-03T03:08:10.204Z,14.80
2018-06-03T03:14:14.546Z,15.02
2018-06-03T03:20:19.289Z,15.10
2018-06-03T03:26:23.639Z,15.00
2018-06-03T03:32:28.436Z,15.06
2018-06-03T03:38:32.824Z,15.20
2018-06-03T03:44:37.149Z,15.25
2018-06-03T03:50:41.551Z,15.20
2018-06-03T03:56:45.922Z,15.43
2018-06-03T04:02:50.278Z,15.61
2018-06-03T04:08:54.871Z,15.48
2018-06-03T04:14:59.234Z,15.49
2018-06-03T04:21:03.579Z,15.73
2018-06-03T04:27:08.078Z,15.99
2018-06-03T04:33:13.220Z,15.97
2018-06-03T04:39:17.546Z,16.18
2018-06-03T04:45:21.970Z,16.30
2018-06-03T04:51:26.360Z,16.42
2018-06-03T04:57:32.236Z,16.38
2018-06-03T05:03:36.598Z,16.65
2018-06-03T05:09:40.941Z,16.75
2018-06-03T05:15:46.140Z,17.05
2018-06-03T05:21:50.708Z,17.71
2018-06-03T05:27:56.226Z,18.26
2018-06-03T05:34:01.352Z,18.97
2018-06-03T05:40:05.705Z,18.76
2018-06-03T05:46:10.059Z,19.18
2018-06-03T05:52:15.219Z,19.58
2018-06-03T05:58:19.661Z,19.46
2018-06-03T06:04:25.009Z,19.64
2018-06-03T06:10:29.366Z,19.76
2018-06-03T06:16:33.719Z,19.53
2018-06-03T06:22:38.110Z,19.54
2018-06-03T06:28:42.621Z,19.73
2018-06-03T06:34:47.180Z,20.12
2018-06-03T06:40:51.845Z,20.47
2018-06-03T06:46:56.289Z,20.34
2018-06-03T06:53:00.672Z,20.84
2018-06-03T06:59:05.029Z,20.72
2018-06-03T07:05:10.230Z,21.03
2018-06-03T07:11:14.582Z,21.78
2018-06-03T07:17:20.846Z,22.82
2018-06-03T07:23:25.617Z,22.96
2018-06-03T07:29:30.087Z,22.77
2018-06-03T07:35:35.207Z,22.99
2018-06-03T07:41:39.557Z,22.94
2018-06-03T07:47:43.901Z,23.28
2018-06-03T07:53:49.757Z,23.19
2018-06-03T07:59:54.299Z,23.90
2018-06-03T08:05:58.727Z,23.66
2018-06-03T08:12:03.423Z,23.57
2018-06-03T08:18:07.809Z,23.32
2018-06-03T08:24:12.166Z,23.93
2018-06-03T08:30:16.556Z,24.50
2018-06-03T08:36:21.600Z,24.96
2018-06-03T08:42:25.949Z,25.56
2018-06-03T08:48:31.069Z,25.82
2018-06-03T08:54:35.418Z,26.28
2018-06-03T09:00:40.600Z,26.35
2018-06-03T09:06:45.724Z,26.60
2018-06-03T09:12:50.196Z,27.51
2018-06-03T09:18:54.646Z,27.41
2018-06-03T09:24:59.953Z,27.27
2018-06-03T09:31:07.090Z,27.79
2018-06-03T09:37:11.733Z,28.61
2018-06-03T09:43:16.102Z,29.23
2018-06-03T09:49:20.634Z,29.63
2018-06-03T09:55:25.246Z,29.44
2018-06-03T10:01:29.606Z,29.00
2018-06-03T10:07:33.970Z,28.92
2018-06-03T10:13:38.359Z,28.02
2018-06-03T10:19:42.718Z,28.31
2018-06-03T10:25:47.030Z,29.50
2018-06-03T10:31:52.257Z,29.02
2018-06-03T10:37:57.485Z,29.58
2018-06-03T10:44:01.849Z,29.39
2018-06-03T10:50:06.195Z,29.68
2018-06-03T10:56:10.563Z,29.11
2018-06-03T11:02:14.911Z,28.62
2018-06-03T11:08:21.128Z,28.24
2018-06-03T11:14:25.573Z,28.78
2018-06-03T11:20:29.986Z,27.99
2018-06-03T11:26:34.341Z,26.88
2018-06-03T11:32:38.708Z,26.63
2018-06-03T11:38:43.076Z,26.82
2018-06-03T11:44:47.467Z,25.98
2018-06-03T11:50:52.052Z,26.04
2018-06-03T11:57:00.376Z,25.90
2018-06-03T12:03:05.488Z,25.66
2018-06-03T12:09:09.850Z,26.15
2018-06-03T12:15:15.145Z,25.99
2018-06-03T12:21:20.252Z,25.49
2018-06-03T12:27:25.073Z,25.52
2018-06-03T12:33:29.457Z,25.40
2018-06-03T12:39:33.809Z,25.34
2018-06-03T12:45:38.214Z,25.51
2018-06-03T12:51:42.640Z,25.46
2018-06-03T12:57:47.002Z,26.29
2018-06-03T13:03:52.295Z,27.38
2018-06-03T13:09:57.560Z,28.23
2018-06-03T13:16:49.779Z,27.76
2018-06-03T13:22:55.917Z,28.02
2018-06-03T13:29:01.751Z,28.35
2018-06-03T13:35:07.571Z,28.43
2018-06-03T13:41:13.270Z,28.82
2018-06-03T13:47:19.421Z,28.90
2018-06-03T13:53:25.613Z,29.84
2018-06-03T13:59:31.272Z,29.76
2018-06-03T14:05:37.004Z,30.73
2018-06-03T14:11:42.783Z,30.98
2018-06-03T14:17:48.393Z,31.97
2018-06-03T14:23:54.249Z,32.63
2018-06-03T14:30:00.182Z,33.97
2018-06-03T14:36:05.945Z,33.18
2018-06-03T14:42:12.033Z,32.55
2018-06-03T14:48:17.784Z,31.83
2018-06-03T14:54:24.189Z,31.30
2018-06-03T15:00:30.476Z,30.88
2018-06-03T15:06:36.244Z,30.68
2018-06-03T15:12:41.993Z,31.06
2018-06-03T15:18:47.681Z,30.48
2018-06-03T15:24:53.835Z,31.22
2018-06-03T15:30:59.551Z,31.15
2018-06-03T15:37:05.400Z,30.06
2018-06-03T15:43:11.077Z,29.19
2018-06-03T15:49:16.700Z,28.19
2018-06-03T15:55:23.568Z,28.30
2018-06-03T16:01:29.404Z,28.20
2018-06-03T16:07:35.054Z,27.80
2018-06-03T16:13:40.831Z,27.70
2018-06-03T16:19:46.403Z,28.75
2018-06-03T16:25:52.278Z,29.89
2018-06-03T16:31:57.977Z,31.15
2018-06-03T16:38:03.617Z,32.06
2018-06-03T16:44:09.279Z,32.93
2018-06-03T16:50:14.924Z,33.54
2018-06-03T16:56:20.890Z,34.33
2018-06-03T17:02:26.764Z,35.23
2018-06-03T17:08:32.437Z,33.83
2018-06-03T17:14:38.158Z,34.17
2018-06-03T17:20:43.917Z,33.78
2018-06-03T17:26:49.962Z,33.85
2018-06-03T17:32:55.934Z,34.12
2018-06-03T17:39:01.577Z,34.15
2018-06-03T17:45:07.279Z,33.61
2018-06-03T17:51:12.937Z,33.07
2018-06-03T17:57:18.605Z,32.39
2018-06-03T18:03:25.038Z,30.51
2018-06-03T18:09:30.845Z,29.21
2018-06-03T18:15:36.504Z,29.24
2018-06-03T18:21:42.534Z,29.09
2018-06-03T18:27:48.433Z,28.94
2018-06-03T18:33:54.752Z,28.76
2018-06-03T18:40:00.414Z,28.26
2018-06-03T18:46:06.178Z,27.27
2018-06-03T18:52:11.905Z,25.80
2018-06-03T18:58:17.682Z,24.64
2018-06-03T19:04:23.783Z,23.85
2018-06-03T19:10:29.616Z,23.07
2018-06-03T19:16:35.316Z,22.70
2018-06-03T19:22:41.175Z,21.99
2018-06-03T19:28:46.779Z,21.56
2018-06-03T19:34:53.369Z,21.01
2018-06-03T19:40:59.270Z,20.67
2018-06-03T19:47:05.266Z,20.59
2018-06-03T19:53:11.112Z,20.25
2018-06-03T19:59:16.781Z,20.24
2018-06-03T20:05:22.599Z,20.13
2018-06-03T20:11:28.572Z,19.85
2018-06-03T20:17:34.283Z,19.76
2018-06-03T20:23:40.199Z,19.55
2018-06-03T20:29:45.836Z,19.01
2018-06-03T20:35:52.657Z,19.03
2018-06-03T20:41:58.651Z,18.72
2018-06-03T20:48:04.357Z,18.57
2018-06-03T20:54:10.176Z,18.64
2018-06-03T21:00:15.857Z,18.69
2018-06-03T21:06:22.160Z,18.41
2018-06-03T21:12:27.973Z,18.40
2018-06-03T21:18:33.745Z,17.96
2018-06-03T21:24:39.791Z,17.98
2018-06-03T21:30:45.504Z,17.99
2018-06-03T21:36:52.558Z,18.00
2018-06-03T21:42:58.657Z,17.99
2018-06-03T21:49:04.429Z,17.90
2018-06-03T21:55:10.156Z,17.71
2018-06-03T22:01:15.818Z,17.58
2018-06-03T22:07:23.172Z,17.45
2018-06-03T22:13:29.139Z,17.41
2018-06-03T22:19:34.793Z,17.37
2018-06-03T22:25:40.480Z,17.40
2018-06-03T22:31:46.203Z,17.27
2018-06-03T22:37:52.467Z,17.17
2018-06-03T22:43:58.670Z,16.91
2018-06-03T22:50:04.390Z,17.04
2018-06-03T22:56:10.213Z,16.92
2018-06-03T23:02:16.065Z,16.82
2018-06-03T23:08:22.740Z,16.83
2018-06-03T23:14:28.803Z,16.73
2018-06-03T23:20:34.665Z,16.60
2018-06-03T23:26:40.421Z,16.63
2018-06-03T23:32:46.177Z,16.51
2018-06-03T23:38:53.211Z,16.30
2018-06-03T23:44:59.247Z,16.27
2018-06-03T23:51:05.033Z,16.38
2018-06-03T23:57:10.861Z,16.24
